Albright, Illinois
Current Conditions -  °F | °C
As of 4:35 AM on Thursday 27 Nov 2014 (Local Time) from KPRG Reporting Station
Clear Clear  
Wind Chill: -9°   Ceiling: Unl
Heat Index: -5°   Visibility: 10mi
Dew Point: -6°   Wind: 7mph
Humidity: 92%   Direction: 310°NW
Pressure: 30.28"   Gusts: NA
Location:  39.4361°N, 87.7043°W
Report Text: KPRG 271035Z AUTO 31006KT 10SM CLR M05/M06 A3028 RMK AO2 T10461057
Loading
Personal Weather Stations






























Interactive Weather Map New forecast layout! Learn more

10-Day Weather Forecast

Advertisements
Track Severe Weather on mobile